Time;durP1;ratioP1;P1;durP2;ratioP2;P2;SDS_P1;SDS_P2;PMS_P1;PMS_P2;Temp;Humidity;BMP_temperature;BMP_pressure;BME280_temperature;BME280_humidity;BME280_pressure;Samples;Min_cycle;Max_cycle;Signal;HPM_P1;HPM_P2
2023/07/08 00:02:12;;;;;;;17.55;4.28;;;;;;;19.20;100.00;102012.03;5060129;28;20155;-72
2023/07/08 00:04:38;;;;;;;14.88;3.83;;;;;;;19.20;100.00;102012.03;5059024;28;20033;-73
2023/07/08 00:07:04;;;;;;;12.27;3.88;;;;;;;19.13;100.00;102016.69;5060036;28;20056;-72
2023/07/08 00:09:30;;;;;;;15.35;4.13;;;;;;;19.18;100.00;102021.47;5059912;28;20388;-73
2023/07/08 00:11:57;;;;;;;15.50;4.25;;;;;;;19.18;100.00;102029.66;5058794;28;20029;-73
2023/07/08 00:14:23;;;;;;;12.73;3.92;;;;;;;19.04;100.00;102004.44;5038226;28;20040;-72
2023/07/08 00:16:49;;;;;;;16.02;4.22;;;;;;;19.14;100.00;102023.84;5041429;28;20030;-73
2023/07/08 00:19:19;;;;;;;17.88;4.40;;;;;;;19.13;100.00;102022.16;5064925;28;20021;-72
2023/07/08 00:21:47;;;;;;;15.70;4.68;;;;;;;19.17;100.00;102025.25;5058778;28;20028;-72
2023/07/08 00:24:12;;;;;;;17.05;4.00;;;;;;;19.06;100.00;102004.19;5040488;28;20025;-72
2023/07/08 00:26:38;;;;;;;15.35;4.25;;;;;;;19.16;100.00;102018.97;5055878;28;20400;-73
2023/07/08 00:29:10;;;;;;;17.50;4.30;;;;;;;19.10;100.00;102010.84;5038709;28;20044;-72
2023/07/08 00:31:35;;;;;;;20.98;4.22;;;;;;;19.14;100.00;102028.44;5059975;28;20035;-73
2023/07/08 00:34:02;;;;;;;20.30;4.85;;;;;;;19.13;100.00;102022.16;5058194;28;20116;-73
2023/07/08 00:36:28;;;;;;;17.88;4.97;;;;;;;19.12;100.00;102015.03;5040709;28;20043;-73
2023/07/08 00:38:54;;;;;;;14.95;3.83;;;;;;;19.16;100.00;102021.69;5039995;28;20041;-72
2023/07/08 00:41:38;;;;;;;14.00;3.80;;;;;;;19.08;100.00;102005.63;5059123;28;20041;-73
2023/07/08 00:44:03;;;;;;;21.90;4.67;;;;;;;19.17;100.00;102019.78;5059333;28;20075;-73
2023/07/08 00:46:33;;;;;;;14.90;3.60;;;;;;;19.17;100.00;102023.38;5060264;28;20313;-72
2023/07/08 00:49:08;;;;;;;15.48;3.88;;;;;;;19.16;100.00;102020.88;5060010;28;20032;-73
2023/07/08 00:51:38;;;;;;;;;;;;;;;19.16;99.90;102021.69;5060686;28;20063;-72
2023/07/08 00:54:16;;;;;;;13.55;3.88;;;;;;;19.14;99.75;102018.38;5041717;28;19999;-73
2023/07/08 00:56:52;;;;;;;19.30;4.75;;;;;;;19.10;100.00;102022.59;5062480;28;20579;-73
2023/07/08 00:59:23;;;;;;;14.48;4.18;;;;;;;19.08;100.00;102022.00;5063432;28;20025;-73
2023/07/08 01:01:50;;;;;;;13.40;4.03;;;;;;;18.98;99.69;102010.78;5045646;28;20021;-72
2023/07/08 01:04:25;;;;;;;12.88;3.90;;;;;;;19.00;99.60;102014.09;5044748;28;20033;-73
2023/07/08 01:06:58;;;;;;;16.38;3.63;;;;;;;19.10;99.63;102029.94;5042271;28;20064;-72
2023/07/08 01:09:32;;;;;;;11.73;3.78;;;;;;;19.08;99.33;102030.19;5041920;28;20040;-72
2023/07/08 01:12:02;;;;;;;14.80;4.35;;;;;;;19.05;99.23;102035.28;5046637;28;20033;-73
2023/07/08 01:14:31;;;;;;;11.00;3.92;;;;;;;18.95;99.61;102025.69;5058792;28;20078;-73
2023/07/08 01:16:57;;;;;;;15.43;4.15;;;;;;;18.98;99.81;102032.59;5058176;28;20024;-73
2023/07/08 01:19:32;;;;;;;14.13;4.13;;;;;;;19.00;99.65;102036.75;5043540;28;20025;-72
2023/07/08 01:21:59;;;;;;;16.20;4.00;;;;;;;19.00;99.31;102035.94;5061049;28;20032;-73
2023/07/08 01:24:25;;;;;;;15.82;4.22;;;;;;;18.91;99.28;102018.22;5044124;28;20028;-73
2023/07/08 01:26:51;;;;;;;14.43;4.63;;;;;;;18.90;99.50;102027.44;5044938;28;20028;-73
2023/07/08 01:29:16;;;;;;;12.40;3.70;;;;;;;18.87;99.45;102025.97;5044428;28;20025;-73
2023/07/08 01:31:48;;;;;;;13.45;3.70;;;;;;;18.87;99.07;102027.88;5062745;28;20091;-73
2023/07/08 01:34:15;;;;;;;12.85;3.53;;;;;;;18.87;99.07;102027.88;5061763;28;20430;-72
2023/07/08 01:36:46;;;;;;;9.23;3.30;;;;;;;18.83;98.50;102010.28;5061265;28;20365;-73
2023/07/08 01:39:17;;;;;;;16.05;4.68;;;;;;;18.93;98.33;102032.44;5060722;28;20036;-73
2023/07/08 01:41:44;;;;;;;13.43;3.83;;;;;;;18.96;97.85;102026.53;5062857;28;20021;-73
2023/07/08 01:44:26;;;;;;;13.85;3.63;;;;;;;19.00;97.73;102033.19;5055329;28;20060;-72
2023/07/08 01:46:55;;;;;;;13.00;4.13;;;;;;;18.95;97.40;102028.44;5054736;28;20044;-73
2023/07/08 01:49:21;;;;;;;13.32;3.30;;;;;;;18.91;97.45;102029.94;5036010;28;20021;-72
2023/07/08 01:51:49;;;;;;;12.40;3.80;;;;;;;18.88;97.45;102024.94;5036696;28;20021;-72
2023/07/08 01:54:14;;;;;;;11.25;4.03;;;;;;;18.87;97.45;102039.59;5054588;28;20031;-73
2023/07/08 01:56:40;;;;;;;14.77;4.40;;;;;;;18.78;97.66;102020.00;5054890;28;20021;-72
2023/07/08 01:59:05;;;;;;;11.55;3.63;;;;;;;18.86;98.24;102040.69;5054693;28;20115;-72
2023/07/08 02:01:31;;;;;;;13.50;4.32;;;;;;;18.87;97.81;102038.78;5059315;28;20041;-72
2023/07/08 02:03:56;;;;;;;18.00;3.97;;;;;;;18.75;97.75;102020.44;5042963;28;20060;-73
2023/07/08 02:06:21;;;;;;;13.27;3.90;;;;;;;18.87;97.66;102023.25;5057779;28;20495;-73
2023/07/08 02:08:47;;;;;;;13.02;3.80;;;;;;;18.88;97.75;102019.47;5061106;28;20031;-72
2023/07/08 02:11:12;;;;;;;13.68;3.90;;;;;;;18.86;98.35;102005.22;5043869;28;20029;-73
2023/07/08 02:13:38;;;;;;;13.40;4.45;;;;;;;18.96;98.07;102021.06;5060434;28;20036;-72
2023/07/08 02:16:03;;;;;;;16.50;4.40;;;;;;;18.91;97.79;102007.28;5043968;28;20029;-72
2023/07/08 02:18:32;;;;;;;12.00;3.72;;;;;;;18.90;98.04;102021.97;5044047;28;20033;-72
2023/07/08 02:20:58;;;;;;;15.65;3.88;;;;;;;18.69;97.90;101985.84;5060643;28;20051;-72
2023/07/08 02:23:24;;;;;;;16.92;4.20;;;;;;;18.80;97.67;101999.84;5061785;28;20033;-73
2023/07/08 02:25:51;;;;;;;18.98;4.13;;;;;;;18.82;97.47;102009.47;5061271;28;20033;-73
2023/07/08 02:28:17;;;;;;;14.15;3.90;;;;;;;18.87;97.95;102022.41;5043548;28;20024;-73
2023/07/08 02:30:42;;;;;;;9.30;3.40;;;;;;;18.91;97.45;102020.94;5061270;28;20040;-72
2023/07/08 02:33:09;;;;;;;13.07;3.90;;;;;;;18.89;97.45;102023.03;5061413;28;20029;-73
2023/07/08 02:35:35;;;;;;;13.00;3.50;;;;;;;18.93;97.33;102025.09;5060290;28;20506;-73
2023/07/08 02:38:00;;;;;;;11.63;3.50;;;;;;;18.91;97.23;102027.22;5060761;28;20032;-73
2023/07/08 02:40:26;;;;;;;9.48;3.25;;;;;;;18.99;96.49;102023.34;5057223;28;20035;-73
2023/07/08 02:42:52;;;;;;;12.18;3.63;;;;;;;18.97;96.23;102017.28;5040586;28;20025;-73
2023/07/08 02:45:18;;;;;;;12.57;3.28;;;;;;;19.03;95.65;102019.09;5059027;28;20056;-72
2023/07/08 02:47:44;;;;;;;9.82;3.28;;;;;;;18.95;95.28;102003.88;5060689;28;20036;-72
2023/07/08 02:50:11;;;;;;;17.85;3.15;;;;;;;19.27;93.81;102019.25;5041501;28;20033;-71
2023/07/08 02:52:36;;;;;;;14.70;3.70;;;;;;;19.41;92.62;102012.63;5041368;28;20024;-72
2023/07/08 02:55:02;;;;;;;10.43;3.67;;;;;;;19.31;92.97;102015.03;5042458;28;20507;-73
2023/07/08 02:57:28;;;;;;;8.20;3.40;;;;;;;19.67;91.28;102012.31;5043249;28;20028;-72
2023/07/08 02:59:53;;;;;;;10.98;2.95;;;;;;;20.23;88.33;102010.25;5043568;28;20033;-72
2023/07/08 03:02:19;;;;;;;11.98;2.95;;;;;;;20.50;85.76;101990.69;5043797;28;20037;-73
2023/07/08 03:04:44;;;;;;;12.10;2.85;;;;;;;20.72;84.09;102002.72;5035170;28;20431;-73
2023/07/08 03:07:11;;;;;;;9.13;3.00;;;;;;;20.67;84.20;102016.28;5042779;28;20033;-72
2023/07/08 03:09:40;;;;;;;8.82;3.13;;;;;;;20.74;83.75;102017.00;5042069;28;20491;-72
2023/07/08 03:12:08;;;;;;;9.10;2.92;;;;;;;21.16;81.42;102014.13;5060726;28;20400;-73
2023/07/08 03:14:33;;;;;;;9.45;3.10;;;;;;;21.02;81.54;102018.16;5042164;28;20094;-72
2023/07/08 03:16:59;;;;;;;9.80;3.47;;;;;;;20.71;83.17;102014.72;5041927;28;20499;-73
2023/07/08 03:19:25;;;;;;;9.82;3.30;;;;;;;20.83;82.38;101995.59;5041958;28;20033;-72
2023/07/08 03:21:51;;;;;;;11.52;3.15;;;;;;;21.54;78.91;101999.88;5041974;28;20070;-73
2023/07/08 03:24:17;;;;;;;9.82;3.08;;;;;;;21.60;78.30;102011.78;5042859;28;20108;-73
2023/07/08 03:26:46;;;;;;;10.52;3.17;;;;;;;21.38;79.54;102019.81;5042656;28;20021;-72
2023/07/08 03:29:18;;;;;;;12.73;3.33;;;;;;;21.30;80.47;102018.25;5059788;28;20040;-73
2023/07/08 03:31:45;;;;;;;9.57;3.38;;;;;;;21.42;79.49;102028.34;5041301;28;20487;-73
2023/07/08 03:34:11;;;;;;;7.97;3.00;;;;;;;21.18;80.45;102027.53;5059492;28;20181;-73
2023/07/08 03:36:48;;;;;;;11.68;3.25;;;;;;;20.72;82.96;102035.53;5060809;28;20033;-73
2023/07/08 03:39:15;;;;;;;11.35;2.95;;;;;;;20.54;84.20;102024.72;5060342;28;20101;-72
2023/07/08 03:41:41;;;;;;;13.00;3.22;;;;;;;20.36;85.58;102025.59;5042116;28;20021;-72
2023/07/08 03:44:07;;;;;;;12.38;3.40;;;;;;;20.24;86.59;102027.47;5059955;28;20049;-73
2023/07/08 03:46:32;;;;;;;9.55;3.17;;;;;;;20.11;88.27;102029.34;5060190;28;20036;-73
2023/07/08 03:48:57;;;;;;;10.43;3.00;;;;;;;20.02;88.63;102036.19;5043718;28;20128;-71
2023/07/08 03:51:36;;;;;;;10.65;3.17;;;;;;;19.96;89.98;102031.66;5057981;28;20032;-73
2023/07/08 03:54:02;;;;;;;10.10;3.28;;;;;;;19.82;90.10;102011.88;5039797;28;20087;-73
2023/07/08 03:56:27;;;;;;;10.93;3.00;;;;;;;19.94;90.26;102029.16;5042941;28;20020;-73
2023/07/08 03:58:53;;;;;;;11.68;3.22;;;;;;;19.95;90.60;102030.00;5041966;28;20032;-73
2023/07/08 04:01:23;;;;;;;13.10;3.35;;;;;;;19.97;90.39;102033.34;5042017;28;20446;-72
2023/07/08 04:03:51;;;;;;;10.07;2.80;;;;;;;20.02;89.76;102043.56;5039783;28;20025;-73
2023/07/08 04:06:16;;;;;;;10.05;3.08;;;;;;;19.99;90.06;102042.13;5056970;28;20057;-72
2023/07/08 04:08:42;;;;;;;12.60;3.40;;;;;;;19.98;90.36;102045.09;5059927;28;20025;-73
2023/07/08 04:11:12;;;;;;;10.73;3.25;;;;;;;19.94;90.53;102045.56;5040062;28;20131;-73
2023/07/08 04:13:37;;;;;;;10.95;3.47;;;;;;;19.95;90.50;102049.13;5057573;28;20037;-72
2023/07/08 04:16:05;;;;;;;11.45;3.53;;;;;;;20.08;90.25;102050.81;5057499;28;20155;-72
2023/07/08 04:18:31;;;;;;;10.30;3.22;;;;;;;20.02;89.85;102041.66;5057340;28;20043;-73
2023/07/08 04:20:57;;;;;;;9.32;3.45;;;;;;;20.07;90.01;102046.44;5059661;28;20025;-72
2023/07/08 04:23:23;;;;;;;12.55;3.22;;;;;;;20.05;89.80;102046.66;5042643;28;20033;-73
2023/07/08 04:25:50;;;;;;;12.98;3.58;;;;;;;19.79;89.77;102003.31;5057372;28;20025;-72
2023/07/08 04:28:16;;;;;;;11.77;3.45;;;;;;;20.47;87.89;102060.34;5024884;28;20033;-72
2023/07/08 04:30:42;;;;;;;8.65;3.03;;;;;;;20.85;86.43;102061.81;5063788;28;20076;-73
2023/07/08 04:33:09;;;;;;;12.32;3.30;;;;;;;21.36;83.42;102054.81;5029279;28;20033;-72
2023/07/08 04:35:38;;;;;;;11.98;3.42;;;;;;;21.32;83.96;102059.06;5044067;28;20418;-72
2023/07/08 04:38:09;;;;;;;8.63;3.35;;;;;;;21.74;81.84;102040.53;5061664;28;20031;-72
2023/07/08 04:40:39;;;;;;;8.75;3.30;;;;;;;21.91;81.04;102064.41;5046255;28;20035;-73
2023/07/08 04:43:10;;;;;;;8.38;2.90;;;;;;;21.96;80.87;102061.78;5045293;28;20036;-73
2023/07/08 04:45:37;;;;;;;9.77;3.00;;;;;;;22.16;80.08;102053.16;5043946;28;20053;-73
2023/07/08 04:48:08;;;;;;;11.43;3.22;;;;;;;22.64;77.31;102060.81;5062394;28;20033;-73
2023/07/08 04:50:36;;;;;;;10.90;3.70;;;;;;;22.26;79.16;102061.56;5046206;28;20036;-72
2023/07/08 04:53:02;;;;;;;9.32;3.85;;;;;;;22.16;79.22;102056.72;5045626;28;20083;-73
2023/07/08 04:55:27;;;;;;;10.00;3.67;;;;;;;21.77;81.09;102066.63;5062098;28;20041;-73
2023/07/08 04:57:53;;;;;;;13.32;3.67;;;;;;;21.60;81.20;102066.56;5063353;28;20496;-73
2023/07/08 05:00:19;;;;;;;8.70;3.05;;;;;;;21.67;80.64;102055.44;5063158;28;20476;-73
2023/07/08 05:02:45;;;;;;;11.48;3.40;;;;;;;21.76;80.50;102067.69;5045053;28;20040;-72
2023/07/08 05:05:11;;;;;;;12.20;3.05;;;;;;;21.88;79.84;102062.16;5062945;28;20029;-73
2023/07/08 05:07:36;;;;;;;12.40;3.38;;;;;;;22.36;76.65;102044.44;5041099;28;20031;-72
2023/07/08 05:10:02;;;;;;;11.50;3.00;;;;;;;22.65;75.30;102061.66;5045428;28;20036;-73
2023/07/08 05:12:28;;;;;;;9.05;3.10;;;;;;;22.73;74.85;102055.75;5062961;28;20048;-73
2023/07/08 05:14:53;;;;;;;10.40;3.40;;;;;;;22.78;74.62;102049.50;5043530;28;20053;-73
2023/07/08 05:17:19;;;;;;;13.25;3.13;;;;;;;22.91;74.65;102065.63;5063401;28;20136;-72
2023/07/08 05:19:45;;;;;;;9.00;2.70;;;;;;;23.01;73.92;102056.75;5043881;28;20116;-73
2023/07/08 05:22:12;;;;;;;8.07;3.03;;;;;;;23.02;74.01;102048.28;5059306;28;20025;-73
2023/07/08 05:24:37;;;;;;;14.45;3.35;;;;;;;23.42;72.94;102034.25;5058761;28;20039;-72
2023/07/08 05:27:03;;;;;;;9.52;2.75;;;;;;;23.92;71.87;102068.13;5041383;28;20494;-72
2023/07/08 05:29:29;;;;;;;11.25;2.80;;;;;;;23.94;70.82;102065.13;5060092;28;20033;-73
2023/07/08 05:31:55;;;;;;;9.30;2.63;;;;;;;23.97;70.09;102070.09;5044993;28;20166;-73
2023/07/08 05:34:21;;;;;;;9.05;2.95;;;;;;;23.77;69.47;102066.03;5063269;28;20021;-73
2023/07/08 05:36:46;;;;;;;9.35;3.05;;;;;;;23.73;70.03;102075.06;5063581;28;20033;-72
2023/07/08 05:39:12;;;;;;;9.80;3.15;;;;;;;23.49;70.78;102078.03;5045596;28;20036;-73
2023/07/08 05:41:39;;;;;;;10.77;2.88;;;;;;;23.35;71.12;102080.31;5062467;28;20041;-73
2023/07/08 05:44:05;;;;;;;7.68;3.35;;;;;;;23.09;72.23;102075.56;5028558;28;20057;-73
2023/07/08 05:46:30;;;;;;;11.65;3.63;;;;;;;22.81;73.35;102079.19;5044588;28;20086;-73
2023/07/08 05:48:55;;;;;;;11.20;3.00;;;;;;;22.61;74.80;102074.22;5062554;28;20033;-73
2023/07/08 05:51:21;;;;;;;9.52;3.00;;;;;;;22.61;75.36;102074.22;5061672;28;20051;-73
2023/07/08 05:53:46;;;;;;;10.32;3.20;;;;;;;22.37;76.08;102052.41;5062024;28;20565;-73
2023/07/08 05:56:12;;;;;;;7.40;2.83;;;;;;;22.17;77.01;102087.69;5060236;28;20025;-73
2023/07/08 05:58:37;;;;;;;10.63;3.08;;;;;;;21.88;78.66;102087.66;5061374;28;20479;-73
2023/07/08 06:01:03;;;;;;;10.05;3.17;;;;;;;21.62;80.07;102089.03;5062162;28;20091;-72
2023/07/08 06:03:29;;;;;;;9.00;2.72;;;;;;;21.42;81.04;102086.69;5060838;28;20035;-73
2023/07/08 06:05:54;;;;;;;9.95;3.00;;;;;;;21.26;82.20;102092.91;5046951;28;20032;-73
2023/07/08 06:08:21;;;;;;;15.65;3.58;;;;;;;21.15;83.10;102074.56;5048928;28;20059;-74
2023/07/08 06:10:47;;;;;;;10.52;3.10;;;;;;;21.15;83.85;102090.97;5062576;28;20040;-73
2023/07/08 06:13:13;;;;;;;11.13;3.50;;;;;;;21.10;84.29;102095.28;5043998;28;20021;-72
2023/07/08 06:15:39;;;;;;;8.23;3.22;;;;;;;21.11;84.58;102099.66;5038108;28;20128;-72
2023/07/08 06:18:05;;;;;;;10.80;3.03;;;;;;;21.14;84.35;102092.06;5056950;28;20088;-72
2023/07/08 06:20:31;;;;;;;10.55;2.90;;;;;;;21.22;84.09;102089.78;5043476;28;20060;-73
2023/07/08 06:22:56;;;;;;;9.63;3.15;;;;;;;21.18;83.43;102088.59;5044069;28;20078;-73
2023/07/08 06:25:22;;;;;;;9.02;2.60;;;;;;;21.14;83.05;102081.13;5061720;28;20557;-72
2023/07/08 06:27:47;;;;;;;7.65;2.63;;;;;;;21.34;82.43;102103.47;5060766;28;20452;-72
2023/07/08 06:30:13;;;;;;;11.20;3.05;;;;;;;21.18;82.09;102076.81;5060834;28;20100;-73
2023/07/08 06:32:38;;;;;;;10.18;3.10;;;;;;;21.43;82.01;102104.81;5062399;28;20524;-72
2023/07/08 06:35:04;;;;;;;10.40;3.28;;;;;;;21.57;81.68;102113.59;5060963;28;20040;-73
2023/07/08 06:37:30;;;;;;;10.02;2.78;;;;;;;21.68;81.26;102106.41;5058770;28;20036;-73
2023/07/08 06:39:56;;;;;;;12.75;3.35;;;;;;;21.77;81.61;102108.53;5058180;28;20029;-73
2023/07/08 06:42:21;;;;;;;8.70;3.08;;;;;;;21.87;80.81;102118.06;5058665;28;20523;-73
2023/07/08 06:44:50;;;;;;;7.68;2.78;;;;;;;21.93;80.55;102106.94;5043143;28;20057;-73
2023/07/08 06:47:20;;;;;;;11.98;3.08;;;;;;;21.98;79.92;102108.94;5062143;28;20487;-73
2023/07/08 06:49:46;;;;;;;13.38;3.05;;;;;;;22.08;79.48;102109.16;5043820;28;20029;-73
2023/07/08 06:52:12;;;;;;;9.65;2.97;;;;;;;22.32;79.44;102109.94;5059594;28;20037;-72
2023/07/08 06:54:37;;;;;;;12.98;3.08;;;;;;;22.37;78.88;102111.91;5060989;28;20111;-73
2023/07/08 06:57:03;;;;;;;11.40;3.13;;;;;;;22.44;79.05;102101.63;5060013;28;20108;-73
2023/07/08 06:59:28;;;;;;;11.57;4.60;;;;;;;22.32;77.71;102088.00;5042616;28;20052;-73
2023/07/08 07:01:54;;;;;;;10.20;4.20;;;;;;;22.33;77.71;102103.34;5043496;28;20044;-73
2023/07/08 07:04:19;;;;;;;11.15;3.80;;;;;;;22.25;77.91;102109.22;5062483;28;20053;-73
2023/07/08 07:06:45;;;;;;;12.10;4.13;;;;;;;22.09;78.01;102115.50;5054688;28;20029;-73
2023/07/08 07:09:10;;;;;;;8.50;2.67;;;;;;;21.87;78.75;102116.13;5063537;28;20025;-72
2023/07/08 07:11:36;;;;;;;10.50;3.05;;;;;;;21.77;79.32;102114.03;5044255;28;20566;-72
2023/07/08 07:14:02;;;;;;;11.48;3.03;;;;;;;21.78;79.46;102110.19;5060333;28;20033;-72
2023/07/08 07:16:27;;;;;;;9.80;2.95;;;;;;;21.52;80.11;102094.28;5044090;28;20486;-73
2023/07/08 07:18:53;;;;;;;12.23;3.58;;;;;;;21.51;80.97;102118.13;5044091;28;20027;-72
2023/07/08 07:21:19;;;;;;;8.10;2.53;;;;;;;21.40;81.88;102116.25;5060989;28;20033;-73
2023/07/08 07:23:44;;;;;;;9.05;3.00;;;;;;;21.60;81.54;102115.84;5044025;28;20029;-73
2023/07/08 07:26:10;;;;;;;8.73;2.80;;;;;;;21.81;82.02;102125.31;5043150;28;20037;-72
2023/07/08 07:28:35;;;;;;;9.68;3.00;;;;;;;21.84;81.78;102091.97;5061582;28;20029;-73
2023/07/08 07:31:01;;;;;;;7.78;2.78;;;;;;;21.83;81.67;102094.97;5060664;28;20120;-72
2023/07/08 07:33:27;;;;;;;9.35;2.53;;;;;;;22.01;81.50;102120.25;5043665;28;20144;-73
2023/07/08 07:35:53;;;;;;;9.38;2.85;;;;;;;21.80;81.36;102096.28;5060012;28;20078;-73
2023/07/08 07:38:18;;;;;;;7.72;2.70;;;;;;;22.01;81.60;102125.75;5060355;28;20035;-72
2023/07/08 07:40:44;;;;;;;9.73;2.85;;;;;;;22.18;81.05;102134.03;5057063;28;20136;-73
2023/07/08 07:43:10;;;;;;;8.00;2.38;;;;;;;21.97;81.02;102088.94;5052627;28;20112;-73
2023/07/08 07:45:35;;;;;;;8.52;2.83;;;;;;;22.27;80.07;102123.53;5037468;28;20070;-73
2023/07/08 07:48:01;;;;;;;8.25;2.63;;;;;;;22.36;78.99;102124.81;5063287;28;20081;-73
2023/07/08 07:50:27;;;;;;;11.70;2.80;;;;;;;22.46;78.08;102110.44;5045684;28;20027;-73
2023/07/08 07:52:52;;;;;;;7.63;2.78;;;;;;;22.46;77.06;102121.41;5043968;28;20041;-73
2023/07/08 07:55:18;;;;;;;8.02;2.85;;;;;;;22.18;76.89;102123.09;5060624;28;20402;-73
2023/07/08 07:57:45;;;;;;;8.43;2.20;;;;;;;21.88;76.94;102115.06;5045354;28;20015;-73
2023/07/08 08:00:13;;;;;;;5.25;2.33;;;;;;;21.69;77.83;102122.63;5047223;28;20397;-72
2023/07/08 08:02:40;;;;;;;5.50;2.40;;;;;;;21.55;77.97;102122.03;4980615;28;20030;-73
2023/07/08 08:05:05;;;;;;;8.00;2.20;;;;;;;21.50;77.73;102127.41;5049242;28;20030;-73
2023/07/08 08:07:31;;;;;;;11.25;2.22;;;;;;;21.51;78.37;102125.50;5047894;28;20027;-73
2023/07/08 08:09:56;;;;;;;7.90;2.80;;;;;;;21.54;77.51;102127.75;5051237;28;20041;-73
2023/07/08 08:12:24;;;;;;;6.60;2.20;;;;;;;21.52;75.19;102130.75;4983422;28;20129;-73
2023/07/08 08:14:50;;;;;;;5.70;2.00;;;;;;;21.45;73.57;102116.34;4979784;28;20045;-73
2023/07/08 08:17:15;;;;;;;6.53;1.90;;;;;;;21.58;72.50;102127.03;5031681;28;20350;-73
2023/07/08 08:19:41;;;;;;;7.40;2.17;;;;;;;21.60;72.04;102134.19;5050245;28;20062;-73
2023/07/08 08:22:06;;;;;;;5.32;1.85;;;;;;;21.66;69.88;102131.34;4982377;28;20104;-73
2023/07/08 08:24:34;;;;;;;5.30;1.77;;;;;;;21.76;68.37;102126.06;4982497;28;20533;-73
2023/07/08 08:26:59;;;;;;;9.95;2.28;;;;;;;21.80;67.30;102129.16;5049765;28;20042;-73
2023/07/08 08:29:25;;;;;;;5.32;2.17;;;;;;;21.80;68.86;102135.47;5049120;28;20050;-72
2023/07/08 08:31:50;;;;;;;5.72;1.95;;;;;;;21.62;68.91;102127.38;5065960;28;20537;-73
2023/07/08 08:34:16;;;;;;;5.05;1.42;;;;;;;21.75;68.39;102138.06;5065715;28;20056;-73
2023/07/08 08:36:42;;;;;;;5.00;2.00;;;;;;;21.94;66.38;102130.53;4981802;28;20030;-73
2023/07/08 08:39:08;;;;;;;7.78;2.10;;;;;;;21.96;66.17;102125.66;5049125;28;20034;-73
2023/07/08 08:41:37;;;;;;;4.60;1.70;;;;;;;21.98;67.40;102126.22;5049451;28;20032;-73
2023/07/08 08:44:04;;;;;;;5.40;1.65;;;;;;;22.01;67.04;102133.13;5048262;28;20058;-72
2023/07/08 08:46:30;;;;;;;6.53;2.25;;;;;;;22.12;65.59;102139.66;5049355;28;20113;-73
2023/07/08 08:49:16;;;;;;;5.13;2.15;;;;;;;22.01;65.58;102133.13;4982601;28;20055;-73
2023/07/08 08:51:41;;;;;;;3.63;1.88;;;;;;;21.85;66.52;102114.72;4979792;28;20027;-73
2023/07/08 08:54:09;;;;;;;4.15;1.73;;;;;;;21.88;66.61;102128.75;5048712;28;20030;-72
2023/07/08 08:56:43;;;;;;;3.83;1.50;;;;;;;21.86;67.14;102133.66;5048420;28;20019;-73
2023/07/08 08:59:26;;;;;;;;;;;;;;;21.83;66.32;102139.63;4980887;28;20050;-73
2023/07/08 09:01:54;;;;;;;4.43;1.63;;;;;;;21.99;64.87;102143.53;5067193;28;20005;-73
2023/07/08 09:04:25;;;;;;;5.10;1.80;;;;;;;22.20;62.22;102147.53;5048876;28;20057;-73
2023/07/08 09:06:57;;;;;;;3.47;1.55;;;;;;;22.30;61.58;102136.75;4981332;28;20389;-73
2023/07/08 09:09:38;;;;;;;2.15;1.42;;;;;;;22.47;59.81;102167.78;4981078;28;20139;-73
2023/07/08 09:12:09;;;;;;;4.57;1.60;;;;;;;22.40;59.35;102156.13;4981497;28;20023;-74
2023/07/08 09:14:36;;;;;;;4.55;1.40;;;;;;;22.75;58.47;102160.63;5032018;28;20054;-73
2023/07/08 09:17:13;;;;;;;5.90;1.67;;;;;;;22.70;57.74;102160.53;5045995;28;20034;-73
2023/07/08 09:19:44;;;;;;;3.30;1.77;;;;;;;22.67;57.69;102152.78;5045830;28;20114;-73
2023/07/08 09:22:21;;;;;;;4.05;1.70;;;;;;;22.81;57.93;102140.41;4983110;28;20031;-72
2023/07/08 09:25:23;;;;;;;3.55;1.65;;;;;;;23.06;58.11;102166.66;5050517;28;20121;-72
2023/07/08 09:27:49;;;;;;;4.10;1.60;;;;;;;22.81;58.17;102151.38;4992257;28;20051;-73
2023/07/08 09:30:17;;;;;;;3.40;1.70;;;;;;;23.08;58.21;102162.59;5048658;28;20019;-73
2023/07/08 09:32:42;;;;;;;3.67;1.80;;;;;;;22.58;59.60;102144.13;5046129;28;20026;-73
2023/07/08 09:35:17;;;;;;;7.18;1.90;;;;;;;22.67;61.18;102155.53;5047620;28;20043;-72
2023/07/08 09:37:45;;;;;;;;;;;;;;;22.98;60.98;102157.75;4982013;28;20412;-72
2023/07/08 09:40:21;;;;;;;4.40;1.90;;;;;;;22.96;62.17;102153.59;4981400;28;19910;-73
2023/07/08 09:42:52;;;;;;;4.18;2.00;;;;;;;22.80;63.40;102121.44;5048196;28;20031;-73
2023/07/08 09:45:21;;;;;;;6.32;1.98;;;;;;;22.91;63.42;102158.94;4979764;28;20050;-73
2023/07/08 09:47:47;;;;;;;5.30;2.00;;;;;;;23.02;63.19;102160.00;4980067;28;20019;-73
2023/07/08 09:50:19;;;;;;;7.22;2.55;;;;;;;23.13;63.39;102161.81;5047664;28;20485;-73
2023/07/08 09:52:47;;;;;;;4.25;2.38;;;;;;;23.09;64.38;102152.44;4980823;28;20035;-74
2023/07/08 09:55:12;;;;;;;6.55;2.40;;;;;;;22.86;63.91;102162.44;5041996;28;20026;-73
2023/07/08 09:57:40;;;;;;;5.63;2.05;;;;;;;22.97;64.18;102163.47;4980183;28;20033;-73
2023/07/08 10:00:17;;;;;;;6.15;2.03;;;;;;;23.05;64.29;102154.84;4980854;28;20056;-73
2023/07/08 10:02:49;;;;;;;5.60;1.90;;;;;;;22.78;65.36;102162.03;4981206;28;20031;-73
2023/07/08 10:05:14;;;;;;;4.07;2.10;;;;;;;22.73;65.80;102165.53;4982046;28;20031;-72
2023/07/08 10:07:40;;;;;;;5.95;2.10;;;;;;;22.47;66.18;102176.03;4980614;28;20033;-73
2023/07/08 10:10:15;;;;;;;6.57;2.30;;;;;;;22.54;67.26;102159.41;4981483;28;20076;-72
2023/07/08 10:12:46;;;;;;;5.38;2.15;;;;;;;22.33;68.71;102171.91;5047969;28;20037;-73
2023/07/08 10:15:24;;;;;;;6.32;1.90;;;;;;;22.32;70.09;102162.03;4980749;28;20029;-72
2023/07/08 10:17:49;;;;;;;6.03;2.20;;;;;;;22.32;71.02;102169.41;5048296;28;20049;-73
2023/07/08 10:20:15;;;;;;;4.50;2.10;;;;;;;22.39;71.62;102168.19;5048295;28;20026;-73
2023/07/08 10:22:47;;;;;;;4.90;2.35;;;;;;;22.33;72.85;102166.44;5047953;28;20030;-73
2023/07/08 10:25:40;;;;;;;6.00;2.05;;;;;;;22.34;73.62;102161.78;5062243;28;20497;-73
2023/07/08 10:28:25;;;;;;;5.70;2.00;;;;;;;22.28;74.81;102169.06;4975824;28;20031;-73
2023/07/08 10:30:59;;;;;;;5.88;2.15;;;;;;;22.17;75.33;102162.56;5049415;28;20034;-73
2023/07/08 10:33:53;;;;;;;8.52;2.22;;;;;;;22.18;75.35;102168.88;4980999;28;20034;-73
2023/07/08 10:36:19;;;;;;;4.33;2.00;;;;;;;22.27;75.19;102172.88;5025271;28;20042;-73
2023/07/08 10:39:04;;;;;;;5.25;2.30;;;;;;;22.19;74.87;102165.06;5047943;28;20277;-73
2023/07/08 10:42:08;;;;;;;6.22;2.30;;;;;;;22.37;73.14;102172.25;5048138;28;20027;-73
2023/07/08 10:44:40;;;;;;;5.68;2.20;;;;;;;22.50;72.56;102177.44;4976249;28;20059;-73
2023/07/08 10:47:24;;;;;;;6.82;2.83;;;;;;;22.44;72.06;102173.75;5044494;28;20033;-73
2023/07/08 10:50:37;;;;;;;5.28;2.05;;;;;;;22.38;71.88;102168.44;4981552;28;20026;-72
2023/07/08 10:53:35;;;;;;;7.38;2.40;;;;;;;22.40;72.51;102174.50;5003186;28;20026;-73
2023/07/08 10:56:15;;;;;;;5.22;2.10;;;;;;;22.34;72.84;102173.56;4979804;28;20036;-73
2023/07/08 10:58:46;;;;;;;7.45;2.20;;;;;;;22.42;71.91;102175.94;5034432;28;20487;-73
2023/07/08 11:01:24;;;;;;;5.85;2.30;;;;;;;22.44;72.21;102168.28;5047434;28;20070;-73
2023/07/08 11:04:22;;;;;;;7.93;2.47;;;;;;;22.45;72.08;102159.00;4980498;28;20037;-73
2023/07/08 11:06:55;;;;;;;7.32;2.60;;;;;;;22.55;70.53;102171.22;5040075;28;20049;-73
2023/07/08 11:09:53;;;;;;;6.60;2.00;;;;;;;22.55;71.19;102172.06;4981006;28;20472;-73
2023/07/08 11:12:37;;;;;;;7.43;2.25;;;;;;;22.62;70.46;102172.75;4981538;28;20034;-73
2023/07/08 11:15:33;;;;;;;5.67;2.27;;;;;;;22.76;69.54;102173.25;4980053;28;20030;-73
2023/07/08 11:18:15;;;;;;;6.80;2.65;;;;;;;22.65;70.59;102165.91;5046569;28;20033;-73
2023/07/08 11:20:49;;;;;;;7.38;2.75;;;;;;;22.51;71.54;102163.47;4980545;28;20064;-73
2023/07/08 11:23:40;;;;;;;6.35;2.15;;;;;;;22.72;69.83;102172.09;5047239;28;20018;-73
2023/07/08 11:26:21;;;;;;;5.13;2.30;;;;;;;22.84;69.32;102175.59;4980685;28;20367;-73
2023/07/08 11:28:48;;;;;;;6.18;2.13;;;;;;;22.69;69.86;102180.81;5048035;28;20030;-73
2023/07/08 11:31:14;;;;;;;7.90;2.47;;;;;;;22.82;70.23;102182.41;4981090;28;20046;-73